Latest Weather Observations for Albury

IDN60801

Issued at 11:02 am EST Saturday 23 May 2015 (issued every 30 minutes, with the page automatically refreshed every 10 minutes)

About weather observations | Map of weather stations | Latest weather observations for NSW | Other Formats
Station Details ID: 072160 Name: ALBURY AIRPORT AWS Lat: -36.07 Lon: 146.95 Height: 163.5 m
Data from the previous 72 hours. | See also: Recent months at Albury
Date/Time
EST
Temp
°C
App
Temp
°C
Dew
Point
Rel
Hum
%
Delta-T
°C
Wind Press
QNH
hPa
Press
MSL
hPa
Rain
since 9 am
mm
Dir
 
Spd
km/h
Gust
km/h
Spd
kts
Gust
kts
23/10:30am 9.9 7.5 4.3 68 2.5 ESE 6 11 3 6 1031.9 1032.0 0.0
23/10:00am 8.6 6.9 4.0 73 2.0 S 2 6 1 3 1032.0 1032.1 0.0
23/09:30am 8.4 7.0 3.7 72 2.0 CALM 0 0 0 0 1031.9 1032.0 0.0
23/09:00am 6.1 3.9 3.3 82 1.2 WSW 4 7 2 4 1031.7 1031.8 0.0
23/08:30am 4.7 3.1 2.6 86 0.8 CALM 0 0 0 0 1031.5 1031.6 0.0
23/08:00am 3.2 0.8 2.0 92 0.5 NNW 4 6 2 3 1031.4 1031.5 0.0
23/07:30am 2.0 0.2 1.3 95 0.3 CALM 0 0 0 0 1031.1 1031.2 0.0
23/07:00am 2.2 -0.7 1.3 94 0.3 N 6 9 3 5 1030.8 1030.9 0.0
23/06:30am 2.3 -0.6 1.3 93 0.4 NNE 6 7 3 4 1030.5 1030.6 0.0
23/06:00am 2.2 0.1 1.5 95 0.3 NE 2 7 1 4 1030.1 1030.2 0.0
23/05:30am 2.2 0.4 1.3 94 0.3 CALM 0 0 0 0 1030.0 1030.1 0.0
23/05:00am 2.4 0.6 1.5 94 0.3 CALM 0 0 0 0 1029.7 1029.8 0.0
23/04:30am 2.1 0.2 0.8 91 0.5 CALM 0 0 0 0 1029.7 1029.8 0.0
23/04:00am 2.8 1.0 1.5 91 0.5 CALM 0 0 0 0 1029.5 1029.6 0.0
23/03:30am 3.8 2.2 2.2 89 0.6 CALM 0 0 0 0 1029.4 1029.5 0.0
23/03:00am 4.5 2.9 2.7 88 0.7 CALM 0 0 0 0 1029.5 1029.6 0.0
23/02:30am 4.3 2.0 2.5 88 0.7 NNW 4 9 2 5 1029.6 1029.7 0.0
23/02:00am 4.9 2.3 3.1 88 0.7 N 6 9 3 5 1029.5 1029.6 0.0
23/01:30am 5.0 3.5 2.9 86 0.9 CALM 0 0 0 0 1029.4 1029.5 0.0
23/01:00am 5.7 4.4 3.9 88 0.8 CALM 0 6 0 3 1029.3 1029.4 0.0
23/12:30am 5.1 2.4 3.6 90 0.6 S 7 11 4 6 1029.3 1029.4 0.0
23/12:00am 5.3 3.9 3.6 89 0.7 CALM 0 0 0 0 1029.2 1029.3 0.0
 
Date/Time
EST
Temp
°C
App
Temp
°C
Dew
Point
Rel
Hum
%
Delta-T
°C
Wind Press
QNH
hPa
Press
MSL
hPa
Rain
since 9 am
mm
Dir
 
Spd
km/h
Gust
km/h
Spd
kts
Gust
kts
22/11:30pm 5.7 3.5 3.5 86 0.9 NNW 4 6 2 3 1029.1 1029.2 0.0
22/11:00pm 5.9 3.2 3.6 85 1.0 NW 7 9 4 5 1029.0 1029.1 0.0
22/10:30pm 6.8 4.4 4.1 83 1.2 NW 6 6 3 3 1028.8 1028.9 0.0
22/10:00pm 7.3 5.2 3.7 78 1.5 NNW 4 7 2 4 1028.6 1028.7 0.0
22/09:30pm 9.5 6.5 3.9 68 2.5 ESE 9 13 5 7 1028.6 1028.7 0.0
22/09:00pm 10.8 7.8 4.3 64 2.9 SE 9 15 5 8 1028.3 1028.5 0.0
22/08:30pm 11.2 8.3 4.7 64 3.0 SE 9 13 5 7 1028.0 1028.2 0.0
22/08:00pm 11.3 9.4 4.7 64 3.0 SE 4 9 2 5 1027.7 1027.9 0.0
22/07:30pm 11.3 8.0 4.5 63 3.1 SSE 11 13 6 7 1027.4 1027.6 0.0
22/07:00pm 12.1 8.0 4.6 60 3.4 SSE 15 22 8 12 1027.3 1027.5 0.0
22/06:30pm 12.4 8.7 4.6 59 3.6 SSE 13 24 7 13 1027.0 1027.1 0.0
22/06:00pm 12.9 10.2 5.6 61 3.4 SE 9 13 5 7 1026.6 1026.7 0.0
22/05:30pm 13.0 10.9 5.9 62 3.4 ESE 6 7 3 4 1026.3 1026.4 0.0
22/05:00pm 14.7 12.4 5.8 55 4.3 ESE 7 9 4 5 1025.9 1026.0 0.0
22/04:30pm 15.6 12.9 5.5 51 4.9 SE 9 13 5 7 1025.7 1025.8 0.0
22/04:00pm 16.3 13.7 5.9 50 5.0 ESE 9 15 5 8 1025.5 1025.6 0.0
22/03:30pm 16.4 13.0 5.7 49 5.2 SE 13 19 7 10 1025.2 1025.3 0.0
22/03:00pm 16.5 13.0 5.5 48 5.3 SE 13 22 7 12 1025.0 1025.1 0.0
22/02:30pm 16.6 12.8 5.6 48 5.3 ESE 15 19 8 10 1024.6 1024.7 0.0
22/02:00pm 16.7 12.5 5.6 48 5.4 SE 17 22 9 12 1024.6 1024.7 0.0
22/01:30pm 16.4 12.1 5.4 48 5.3 SE 17 24 9 13 1024.5 1024.6 0.0
22/01:00pm 16.1 11.8 5.1 48 5.2 SE 17 26 9 14 1024.7 1024.8 0.0
22/12:30pm 15.9 11.2 5.2 49 5.1 ESE 19 26 10 14 1024.7 1024.8 0.0
22/12:00pm 15.9 11.6 5.2 49 5.1 SE 17 24 9 13 1025.0 1025.1 0.0
22/11:30am 15.6 10.8 4.9 49 5.1 SE 19 28 10 15 1025.3 1025.4 0.0
22/11:00am 15.3 10.9 4.9 50 4.9 SE 17 24 9 13 1025.6 1025.7 0.0
22/10:30am 14.8 10.0 4.5 50 4.8 SE 19 30 10 16 1025.7 1025.8 0.0
22/10:00am 14.5 9.9 3.9 49 4.9 SSE 17 28 9 15 1025.5 1025.6 0.0
22/09:30am 13.7 9.9 4.0 52 4.5 SSE 13 17 7 9 1025.5 1025.6 0.0
22/09:00am 12.5 8.9 5.2 61 3.4 S 13 20 7 11 1025.3 1025.4 0.0
22/08:30am 11.9 7.6 5.3 64 3.1 SSE 17 22 9 12 1024.8 1024.9 0.0
22/08:00am 10.7 6.6 6.3 74 2.1 SSE 17 20 9 11 1024.4 1024.5 0.0
22/07:30am 9.4 6.0 6.1 80 1.5 S 13 17 7 9 1024.0 1024.1 0.0
22/07:00am 9.6 6.3 6.5 81 1.4 S 13 19 7 10 1023.7 1023.8 0.0
22/06:30am 9.6 7.8 7.0 84 1.2 SSE 6 9 3 5 1023.2 1023.3 0.0
22/06:00am 9.0 7.0 7.0 87 0.9 SSW 7 11 4 6 1022.7 1022.8 0.0
22/05:30am 9.5 7.2 7.3 86 1.1 S 9 11 5 6 1022.4 1022.5 0.0
22/05:00am 10.4 8.1 7.6 83 1.3 SSW 9 13 5 7 1022.0 1022.2 0.0
22/04:30am 11.0 8.7 7.5 79 1.7 S 9 15 5 8 1021.8 1021.9 0.0
22/04:00am 11.0 9.4 7.9 81 1.5 S 6 9 3 5 1021.6 1021.7 0.0
22/03:30am 11.4 9.2 7.7 78 1.8 S 9 15 5 8 1021.5 1021.6 0.0
22/03:00am 11.7 8.8 8.0 78 1.8 SSW 13 15 7 8 1021.4 1021.5 0.0
22/02:30am 10.9 9.5 8.7 86 1.1 WNW 6 9 3 5 1021.5 1021.6 0.0
22/02:00am 10.7 9.7 8.8 88 0.9 WNW 4 7 2 4 1021.5 1021.6 0.0
22/01:30am 10.1 8.6 9.2 94 0.5 NNW 7 11 4 6 1021.4 1021.5 0.0
22/01:00am 9.9 8.1 9.3 96 0.3 SSW 9 9 5 5 1021.4 1021.5 0.0
22/12:30am 9.8 9.6 9.0 95 0.4 CALM 0 0 0 0 1021.4 1021.5 0.0
22/12:00am 9.3 9.0 8.5 95 0.4 CALM 0 0 0 0 1021.4 1021.5 0.0
 
Date/Time
EST
Temp
°C
App
Temp
°C
Dew
Point
Rel
Hum
%
Delta-T
°C
Wind Press
QNH
hPa
Press
MSL
hPa
Rain
since 9 am
mm
Dir
 
Spd
km/h
Gust
km/h
Spd
kts
Gust
kts
21/11:30pm 9.1 7.6 8.3 95 0.4 WNW 6 9 3 5 1021.5 1021.6 0.0
21/11:00pm 9.6 7.6 8.8 95 0.4 NNW 9 13 5 7 1021.4 1021.5 0.0
21/10:30pm 9.1 7.5 8.6 97 0.2 NW 7 9 4 5 1021.5 1021.6 0.0
21/10:00pm 8.2 6.4 7.8 97 0.2 NW 7 9 4 5 1021.4 1021.5 0.0
21/09:30pm 8.6 6.8 8.0 96 0.3 NNW 7 9 4 5 1021.2 1021.3 0.0
21/09:00pm 9.1 7.6 8.6 97 0.2 W 6 7 3 4 1020.9 1021.0 0.0
21/08:30pm 9.6 9.3 8.7 94 0.4 CALM 0 0 0 0 1020.7 1020.8 0.0
21/08:00pm 10.3 9.8 9.2 93 0.5 SSW 2 7 1 4 1020.5 1020.6 0.0
21/07:30pm 10.7 10.5 9.0 89 0.9 CALM 0 0 0 0 1020.5 1020.6 0.0
21/07:00pm 11.9 11.9 9.8 87 1.1 CALM 0 0 0 0 1020.4 1020.5 0.0
21/06:30pm 12.2 12.1 9.4 83 1.4 CALM 0 2 0 1 1020.3 1020.4 0.0
21/06:00pm 12.9 11.7 9.5 80 1.7 S 6 7 3 4 1020.2 1020.3 0.0
21/05:30pm 13.2 11.4 9.5 78 1.9 WSW 9 13 5 7 1020.1 1020.2 0.0
21/05:00pm 13.6 11.8 9.6 77 2.1 W 9 13 5 7 1019.9 1020.0 0.0
21/04:30pm 14.1 11.5 9.5 74 2.4 W 13 15 7 8 1019.9 1020.0 0.0
21/04:00pm 14.4 12.3 9.6 73 2.5 W 11 15 6 8 1019.8 1019.9 0.0
21/03:30pm 14.4 12.2 9.2 71 2.7 W 11 13 6 7 1019.7 1019.8 0.0
21/03:00pm 14.8 12.7 8.3 65 3.3 W 9 13 5 7 1019.6 1019.7 0.0
21/02:30pm 14.9 13.2 8.2 64 3.4 WNW 7 11 4 6 1019.4 1019.5 0.0
21/02:00pm 14.5 13.0 9.3 71 2.7 W 7 9 4 5 1019.5 1019.6 0.0
21/01:30pm 14.1 13.9 9.1 72 2.6 CALM 0 7 0 4 1019.8 1019.9 0.0
21/01:00pm 13.7 13.2 9.4 75 2.2 S 2 6 1 3 1020.0 1020.1 0.0
21/12:30pm 13.7 12.3 9.6 76 2.1 S 7 11 4 6 1020.4 1020.5 0.0
21/12:00pm 13.4 13.3 9.5 77 2.0 CALM 0 0 0 0 1020.7 1020.8 0.0
21/11:30am 13.0 12.5 9.3 78 1.9 SE 2 7 1 4 1021.2 1021.3 0.0
21/11:00am 12.9 11.1 9.4 79 1.8 ESE 9 11 5 6 1021.4 1021.5 0.0
21/10:30am 12.4 10.9 9.2 81 1.6 ESE 7 11 4 6 1021.4 1021.5 0.0
21/10:06am 11.9 10.7 9.5 85 1.2 ESE 6 9 3 5 1021.3 1021.4 0.0
21/10:00am 11.7 9.9 9.4 86 1.2 E 9 13 5 7 1021.2 1021.3 0.0
21/09:30am 11.5 9.6 9.2 86 1.2 E 9 13 5 7 1021.1 1021.2 0.0
21/09:00am 11.5 10.6 9.1 85 1.2 ENE 4 7 2 4 1020.8 1020.9 0.0
21/08:30am 10.3 10.0 8.7 90 0.8 CALM 0 0 0 0 1020.6 1020.7 0.0
21/08:00am 9.2 8.2 8.9 98 0.1 ENE 4 7 2 4 1020.3 1020.4 0.0
21/07:30am 8.4 8.0 8.4 100 0.0 CALM 0 0 0 0 1019.9 1020.0 0.0
21/07:26am 8.3 7.9 8.3 100 0.0 CALM 0 0 0 0 1019.9 1020.0 0.0
21/07:18am 8.2 7.8 8.2 100 0.0 CALM 0 0 0 0 1019.8 1019.9 0.0
21/07:01am 7.6 7.0 7.5 99 0.0 CALM 0 0 0 0 1019.8 1019.9 0.0
21/07:00am 7.5 6.9 7.4 99 0.0 CALM 0 0 0 0 1019.8 1019.9 0.0
21/06:48am 7.2 6.5 7.1 99 0.0 CALM 0 0 0 0 1019.6 1019.7 0.0
21/06:44am 7.7 7.1 7.6 99 0.0 CALM 0 0 0 0 1019.5 1019.6 0.0
21/06:30am 7.8 7.3 7.7 99 0.0 CALM 0 0 0 0 1019.3 1019.4 0.0
21/06:18am 7.6 7.0 7.3 98 0.1 CALM 0 0 0 0 1019.3 1019.4 0.0
21/06:00am 8.2 7.8 8.1 99 0.0 CALM 0 0 0 0 1019.1 1019.2 0.0
21/05:30am 8.9 8.6 8.6 98 0.1 CALM 0 0 0 0 1018.7 1018.8 0.0
21/05:00am 9.3 7.9 9.0 98 0.1 SSE 6 7 3 4 1018.5 1018.6 0.0
21/04:30am 9.4 9.2 9.1 98 0.1 CALM 0 0 0 0 1018.3 1018.4 0.0
21/04:00am 9.2 9.0 9.1 99 0.0 CALM 0 0 0 0 1018.4 1018.5 0.0
21/03:30am 8.9 8.6 8.8 99 0.0 CALM 0 0 0 0 1018.6 1018.7 0.0
21/03:00am 8.8 8.5 8.7 99 0.0 CALM 0 0 0 0 1018.6 1018.7 0.0
21/02:30am 8.5 7.4 8.4 99 0.0 ENE 4 7 2 4 1018.6 1018.7 0.0
21/02:00am 8.2 6.5 8.2 100 0.0 SSE 7 9 4 5 1018.6 1018.7 0.0
21/01:30am 8.0 6.4 7.9 99 0.0 S 6 7 3 4 1018.4 1018.5 0.0
21/01:00am 7.5 6.9 7.4 99 0.0 CALM 0 0 0 0 1018.3 1018.4 0.0
21/12:48am 7.1 6.4 7.0 99 0.0 CALM 0 0 0 0 1018.3 1018.4 0.0
21/12:30am 6.6 5.8 6.5 99 0.0 CALM 0 0 0 0 1018.2 1018.3 0.0
21/12:12am 6.5 5.7 6.4 99 0.0 CALM 0 0 0 0 1018.3 1018.4 0.0
21/12:00am 7.0 6.3 6.9 99 0.0 CALM 0 0 0 0 1018.3 1018.4 0.0
 
Date/Time
EST
Temp
°C
App
Temp
°C
Dew
Point
Rel
Hum
%
Delta-T
°C
Wind Press
QNH
hPa
Press
MSL
hPa
Rain
since 9 am
mm
Dir
 
Spd
km/h
Gust
km/h
Spd
kts
Gust
kts
20/11:56pm 6.4 5.6 6.3 99 0.0 CALM 0 0 0 0 1018.3 1018.4 0.0
20/11:30pm 7.0 6.2 6.6 97 0.2 CALM 0 0 0 0 1018.0 1018.1 0.0
20/11:20pm 6.6 5.3 5.9 95 0.3 NE 2 6 1 3 1018.0 1018.1 0.0
20/11:00pm 7.9 6.2 7.5 97 0.2 ENE 6 6 3 3 1018.1 1018.2 0.0
20/10:30pm 8.0 7.4 7.6 97 0.2 CALM 0 0 0 0 1018.1 1018.2 0.0
20/10:00pm 8.0 7.3 6.8 92 0.6 CALM 0 0 0 0 1018.0 1018.1 0.0
20/09:30pm 8.8 6.8 7.1 89 0.8 ENE 7 7 4 4 1018.2 1018.3 0.0
20/09:00pm 10.8 9.3 8.6 86 1.1 WSW 6 7 3 4 1018.0 1018.1 0.0
20/08:30pm 11.6 9.5 8.3 80 1.6 W 9 15 5 8 1017.9 1018.0 0.0
20/08:00pm 12.5 9.3 8.6 77 2.0 WNW 15 24 8 13 1017.7 1017.8 0.0
20/07:30pm 12.2 9.8 8.5 78 1.8 NW 11 17 6 9 1017.4 1017.5 0.0
20/07:00pm 12.1 9.9 9.5 84 1.3 NNW 11 15 6 8 1016.9 1017.0 0.0
20/06:30pm 12.5 11.4 10.6 88 1.0 N 7 9 4 5 1016.6 1016.6 0.0
20/06:00pm 11.7 10.1 8.9 83 1.4 N 7 9 4 5 1016.1 1016.1 0.0
20/05:30pm 14.0 12.7 10.0 77 2.1 NNW 7 9 4 5 1015.6 1015.7 0.0
20/05:00pm 15.0 13.0 10.2 73 2.5 NW 11 15 6 8 1015.1 1015.2 0.0
20/04:30pm 15.8 14.0 10.8 72 2.7 NW 11 13 6 7 1015.0 1015.1 0.0
20/04:00pm 16.1 13.5 10.6 70 2.9 WNW 15 20 8 11 1014.8 1014.9 0.0
20/03:30pm 16.5 14.1 11.4 72 2.8 WNW 15 19 8 10 1014.6 1014.7 0.0
20/03:00pm 16.9 14.1 11.2 69 3.1 NW 17 22 9 12 1014.4 1014.5 0.0
20/02:30pm 16.9 14.2 11.8 72 2.8 NW 17 26 9 14 1014.5 1014.6 0.0
20/02:00pm 16.1 14.0 12.3 78 2.1 WNW 15 20 8 11 1014.6 1014.7 0.0
20/01:40pm 15.8 13.1 11.8 77 2.2 WNW 17 20 9 11 1014.7 1014.8 0.0
20/01:30pm 16.0 13.7 11.8 76 2.3 NW 15 20 8 11 1014.5 1014.6 0.0
20/01:26pm 16.1 14.3 12.1 77 2.2 NNW 13 19 7 10 1014.5 1014.6 0.0
20/01:04pm 16.1 15.0 11.9 76 2.3 NW 9 17 5 9 1014.4 1014.5 0.0
20/01:00pm 16.1 15.0 11.9 76 2.3 NW 9 13 5 7 1014.3 1014.4 0.0
20/12:30pm 15.1 13.2 11.9 81 1.7 NNW 13 17 7 9 1014.7 1014.8 0.0
20/12:00pm 15.6 14.1 11.8 78 2.1 NNW 11 19 6 10 1014.6 1014.7 0.0
20/11:30am 14.8 13.9 12.5 86 1.3 NNW 9 15 5 8 1014.9 1015.0 0.0

Other Formats:

Comma delimited format used in spreadsheet applications
http://www.bom.gov.au/fwo/IDN60801/IDN60801.95896.axf

JavaScript Object Notation format (JSON) in row-major order
http://www.bom.gov.au/fwo/IDN60801/IDN60801.95896.json